createdAt,value
2019-05-22T00:01:10.246Z,11.00
2019-05-22T00:03:47.359Z,12.75
2019-05-22T00:06:19.032Z,10.80
2019-05-22T00:08:50.028Z,11.48
2019-05-22T00:11:21.328Z,13.95
2019-05-22T00:13:51.523Z,11.70
2019-05-22T00:16:22.142Z,11.60
2019-05-22T00:18:52.536Z,11.90
2019-05-22T00:21:22.836Z,12.43
2019-05-22T00:23:52.471Z,14.47
2019-05-22T00:26:23.444Z,11.73
2019-05-22T00:28:54.170Z,13.43
2019-05-22T00:31:23.380Z,11.65
2019-05-22T00:33:52.519Z,12.30
2019-05-22T00:36:23.316Z,14.90
2019-05-22T00:38:52.556Z,13.55
2019-05-22T00:41:23.717Z,13.20
2019-05-22T00:43:53.379Z,15.03
2019-05-22T00:46:24.079Z,13.30
2019-05-22T00:48:54.183Z,14.03
2019-05-22T00:51:36.554Z,13.53
2019-05-22T00:54:23.538Z,12.73
2019-05-22T00:56:58.023Z,13.55
2019-05-22T00:59:29.505Z,13.88
2019-05-22T01:02:03.765Z,14.95
2019-05-22T01:04:35.344Z,12.33
2019-05-22T01:07:07.662Z,13.45
2019-05-22T01:09:42.247Z,13.80
2019-05-22T01:12:17.489Z,13.30
2019-05-22T01:14:46.928Z,13.68
2019-05-22T01:17:17.839Z,12.03
2019-05-22T01:19:48.615Z,14.35
2019-05-22T01:22:18.041Z,15.35
2019-05-22T01:24:50.842Z,12.75
2019-05-22T01:27:21.864Z,13.90
2019-05-22T01:29:53.952Z,13.95
2019-05-22T01:32:24.903Z,13.00
2019-05-22T01:34:54.344Z,12.63
2019-05-22T01:37:26.119Z,13.38
2019-05-22T01:40:03.739Z,14.00
2019-05-22T01:42:37.118Z,15.30
2019-05-22T01:45:09.437Z,15.80
2019-05-22T01:47:42.480Z,13.32
2019-05-22T01:50:16.220Z,13.98
2019-05-22T01:52:48.416Z,12.82
2019-05-22T01:55:19.214Z,12.15
2019-05-22T01:57:50.486Z,13.35
2019-05-22T02:00:20.534Z,13.45
2019-05-22T02:02:51.993Z,12.95
2019-05-22T02:05:22.871Z,14.25
2019-05-22T02:07:51.952Z,13.58
2019-05-22T02:10:30.175Z,13.10
2019-05-22T02:13:03.259Z,11.88
2019-05-22T02:15:34.108Z,13.35
2019-05-22T02:18:08.066Z,13.28
2019-05-22T02:20:39.003Z,12.58
2019-05-22T02:23:08.549Z,12.05
2019-05-22T02:25:38.130Z,11.48
2019-05-22T02:28:09.206Z,13.43
2019-05-22T02:30:40.216Z,13.85
2019-05-22T02:33:11.038Z,12.58
2019-05-22T02:35:40.776Z,12.60
2019-05-22T02:38:10.278Z,13.62
2019-05-22T02:40:41.876Z,14.23
2019-05-22T02:43:11.804Z,11.78
2019-05-22T02:45:42.177Z,11.50
2019-05-22T02:48:12.027Z,12.53
2019-05-22T02:50:42.077Z,12.37
2019-05-22T02:53:13.091Z,12.18
2019-05-22T02:55:42.443Z,12.13
2019-05-22T02:58:13.159Z,15.00
2019-05-22T03:00:48.468Z,11.88
2019-05-22T03:03:17.895Z,11.40
2019-05-22T03:05:48.367Z,14.15
2019-05-22T03:08:18.038Z,16.17
2019-05-22T03:10:49.223Z,13.83
2019-05-22T03:13:21.536Z,12.03
2019-05-22T03:15:50.748Z,11.88
2019-05-22T03:18:21.456Z,13.28
2019-05-22T03:20:50.695Z,12.23
2019-05-22T03:23:37.925Z,12.90
2019-05-22T03:26:09.193Z,12.03
2019-05-22T03:28:38.649Z,18.82
2019-05-22T03:31:09.388Z,11.73
2019-05-22T03:33:39.122Z,12.30
2019-05-22T03:36:15.018Z,11.53
2019-05-22T03:38:45.204Z,16.32
2019-05-22T03:41:15.507Z,13.35
2019-05-22T03:43:48.469Z,13.03
2019-05-22T03:46:27.436Z,11.18
2019-05-22T03:48:58.367Z,12.93
2019-05-22T03:51:27.599Z,13.55
2019-05-22T03:53:57.231Z,10.40
2019-05-22T03:59:08.803Z,12.28
2019-05-22T04:01:38.226Z,13.05
2019-05-22T04:04:07.463Z,13.80
2019-05-22T04:06:39.133Z,32.60
2019-05-22T04:09:20.343Z,11.15
2019-05-22T04:11:50.025Z,15.08
2019-05-22T04:14:21.292Z,10.43
2019-05-22T04:16:51.794Z,12.28
2019-05-22T04:19:21.415Z,11.83
2019-05-22T04:21:50.913Z,10.32
2019-05-22T04:24:20.461Z,10.43
2019-05-22T04:26:50.339Z,14.73
2019-05-22T04:29:19.551Z,11.22
2019-05-22T04:31:58.727Z,12.05
2019-05-22T04:34:29.000Z,11.57
2019-05-22T04:36:58.233Z,13.55
2019-05-22T04:39:29.612Z,11.28
2019-05-22T04:42:01.042Z,10.65
2019-05-22T04:44:30.293Z,13.10
2019-05-22T04:47:00.450Z,13.90
2019-05-22T04:49:29.552Z,11.22
2019-05-22T04:51:58.924Z,19.50
2019-05-22T04:54:28.177Z,11.28
2019-05-22T04:56:57.775Z,14.00
2019-05-22T04:59:27.108Z,9.83
2019-05-22T05:01:56.635Z,12.98
2019-05-22T05:04:26.880Z,11.50
2019-05-22T05:07:06.960Z,10.48
2019-05-22T05:09:36.257Z,13.30
2019-05-22T05:12:06.049Z,9.83
2019-05-22T05:14:36.463Z,11.70
2019-05-22T05:17:07.170Z,10.75
2019-05-22T05:19:36.404Z,12.50
2019-05-22T05:22:07.443Z,14.85
2019-05-22T05:24:36.508Z,11.97
2019-05-22T05:27:07.202Z,15.45
2019-05-22T05:29:36.739Z,14.10
2019-05-22T05:32:08.263Z,11.40
2019-05-22T05:34:40.685Z,14.15
2019-05-22T05:37:13.483Z,14.90
2019-05-22T05:39:48.445Z,12.40
2019-05-22T05:42:17.987Z,13.15
2019-05-22T05:44:47.126Z,17.17
2019-05-22T05:47:17.962Z,14.40
2019-05-22T05:49:47.392Z,10.63
2019-05-22T05:52:16.927Z,10.03
2019-05-22T05:54:47.876Z,21.48
2019-05-22T05:57:38.496Z,18.17
2019-05-22T06:00:11.748Z,12.25
2019-05-22T06:02:55.614Z,11.57
2019-05-22T06:05:12.279Z,14.58
2019-05-22T06:07:42.195Z,9.13
2019-05-22T06:10:29.412Z,15.53
2019-05-22T06:13:00.463Z,26.07
2019-05-22T06:15:47.006Z,17.65
2019-05-22T06:18:34.349Z,11.40
2019-05-22T06:21:06.152Z,15.15
2019-05-22T06:23:42.175Z,14.40
2019-05-22T06:26:23.111Z,13.53
2019-05-22T06:28:54.142Z,9.83
2019-05-22T06:31:42.729Z,9.28
2019-05-22T06:34:13.181Z,10.98
2019-05-22T06:36:42.937Z,10.53
2019-05-22T06:39:13.723Z,7.97
2019-05-22T06:41:45.988Z,17.30
2019-05-22T06:44:31.175Z,15.32
2019-05-22T06:47:00.989Z,10.58
2019-05-22T06:49:35.779Z,11.28
2019-05-22T06:52:07.300Z,12.43
2019-05-22T06:54:37.268Z,10.90
2019-05-22T06:57:09.398Z,8.90
2019-05-22T06:59:39.925Z,13.50
2019-05-22T07:02:10.237Z,11.30
2019-05-22T07:04:39.632Z,11.68
2019-05-22T07:07:11.860Z,11.57
2019-05-22T07:09:41.013Z,10.18
2019-05-22T07:12:10.721Z,10.93
2019-05-22T07:14:45.559Z,14.55
2019-05-22T07:17:17.217Z,10.43
2019-05-22T07:19:47.095Z,11.63
2019-05-22T07:22:16.510Z,11.50
2019-05-22T07:24:46.775Z,8.95
2019-05-22T07:27:24.963Z,14.80
2019-05-22T07:29:54.463Z,13.55
2019-05-22T07:32:23.722Z,11.68
2019-05-22T07:34:52.876Z,11.68
2019-05-22T07:37:22.950Z,9.73
2019-05-22T07:39:52.150Z,11.15
2019-05-22T07:42:21.377Z,9.08
2019-05-22T07:44:50.437Z,9.43
2019-05-22T07:47:23.322Z,9.98
2019-05-22T07:49:52.443Z,11.65
2019-05-22T07:52:21.947Z,9.10
2019-05-22T07:54:52.715Z,12.30
2019-05-22T07:57:24.592Z,9.73
2019-05-22T07:59:54.779Z,14.95
2019-05-22T08:02:27.822Z,13.03
2019-05-22T08:05:04.285Z,13.22
2019-05-22T08:07:37.431Z,9.85
2019-05-22T08:10:09.930Z,13.00
2019-05-22T08:12:40.217Z,12.33
2019-05-22T08:15:11.570Z,11.95
2019-05-22T08:17:43.005Z,14.18
2019-05-22T08:20:14.451Z,11.05
2019-05-22T08:22:47.803Z,14.85
2019-05-22T08:25:17.472Z,13.28
2019-05-22T08:27:48.428Z,12.95
2019-05-22T08:30:18.804Z,11.55
2019-05-22T08:32:48.389Z,14.35
2019-05-22T08:35:18.166Z,13.45
2019-05-22T08:37:49.782Z,11.03
2019-05-22T08:40:29.132Z,15.68
2019-05-22T08:43:05.403Z,12.50
2019-05-22T08:45:35.701Z,13.88
2019-05-22T08:48:05.764Z,12.85
2019-05-22T08:50:37.022Z,12.80
2019-05-22T08:53:08.378Z,12.30
2019-05-22T08:55:40.725Z,13.30
2019-05-22T08:58:10.145Z,14.30
2019-05-22T09:00:40.933Z,10.50
2019-05-22T09:03:11.775Z,12.47
2019-05-22T09:05:41.484Z,16.77
2019-05-22T09:08:10.705Z,14.63
2019-05-22T09:10:39.836Z,18.80
2019-05-22T09:13:10.438Z,14.38
2019-05-22T09:15:42.020Z,13.30
2019-05-22T09:18:12.264Z,13.35
2019-05-22T09:20:49.300Z,14.00
2019-05-22T09:23:13.053Z,13.03
2019-05-22T09:25:42.261Z,14.70
2019-05-22T09:28:12.124Z,16.05
2019-05-22T09:30:42.259Z,12.33
2019-05-22T09:33:12.627Z,13.35
2019-05-22T09:35:42.076Z,13.65
2019-05-22T09:38:15.380Z,12.13
2019-05-22T09:40:45.774Z,14.80
2019-05-22T09:43:15.172Z,14.50
2019-05-22T09:45:44.984Z,21.52
2019-05-22T09:48:14.728Z,14.60
2019-05-22T09:50:46.499Z,11.30
2019-05-22T09:53:24.349Z,14.63
2019-05-22T09:55:53.948Z,13.80
2019-05-22T09:58:23.114Z,13.38
2019-05-22T10:00:55.883Z,13.75
2019-05-22T10:03:25.315Z,15.05
2019-05-22T10:05:54.934Z,12.20
2019-05-22T10:08:24.408Z,12.53
2019-05-22T10:10:53.531Z,11.43
2019-05-22T10:13:24.473Z,16.57
2019-05-22T10:15:53.657Z,10.70
2019-05-22T10:18:22.960Z,9.70
2019-05-22T10:20:52.239Z,14.30
2019-05-22T10:23:22.383Z,11.53
2019-05-22T10:25:51.852Z,16.82
2019-05-22T10:28:21.642Z,9.98
2019-05-22T10:30:51.413Z,13.10
2019-05-22T10:33:20.966Z,9.30
2019-05-22T10:35:50.512Z,11.75
2019-05-22T10:38:20.210Z,14.78
2019-05-22T10:40:50.385Z,15.78
2019-05-22T10:43:19.760Z,13.75
2019-05-22T10:45:48.899Z,17.73
2019-05-22T10:48:19.305Z,17.92
2019-05-22T10:50:50.012Z,12.55
2019-05-22T10:53:32.814Z,15.32
2019-05-22T10:55:52.702Z,14.90
2019-05-22T10:58:23.199Z,16.67
2019-05-22T11:00:52.700Z,10.10
2019-05-22T11:03:22.182Z,11.33
2019-05-22T11:06:05.638Z,14.85
2019-05-22T11:08:24.383Z,12.58
2019-05-22T11:10:53.694Z,11.00
2019-05-22T11:13:23.183Z,8.78
2019-05-22T11:15:52.535Z,11.08
2019-05-22T11:18:21.848Z,18.30
2019-05-22T11:20:51.070Z,11.05
2019-05-22T11:23:21.132Z,10.03
2019-05-22T11:25:50.435Z,14.23
2019-05-22T11:28:20.200Z,11.08
2019-05-22T11:30:49.900Z,9.15
2019-05-22T11:33:19.312Z,15.00
2019-05-22T11:35:49.290Z,10.72
2019-05-22T11:38:18.458Z,9.93
2019-05-22T11:40:50.606Z,10.75
2019-05-22T11:43:19.667Z,9.23
2019-05-22T11:45:49.129Z,9.68
2019-05-22T11:48:18.553Z,9.58
2019-05-22T11:50:48.964Z,9.40
2019-05-22T11:53:18.307Z,12.47
2019-05-22T11:55:47.660Z,8.88
2019-05-22T11:58:17.120Z,9.95
2019-05-22T12:00:46.458Z,8.38
2019-05-22T12:03:15.601Z,10.28
2019-05-22T12:05:45.838Z,8.45
2019-05-22T12:08:15.152Z,9.18
2019-05-22T12:10:44.681Z,9.05
2019-05-22T12:13:14.563Z,8.00
2019-05-22T12:15:44.051Z,8.15
2019-05-22T12:18:13.213Z,11.22
2019-05-22T12:20:44.347Z,8.98
2019-05-22T12:23:13.419Z,10.30
2019-05-22T12:25:42.608Z,8.83
2019-05-22T12:28:11.637Z,8.55
2019-05-22T12:30:40.846Z,8.93
2019-05-22T12:33:13.858Z,7.30
2019-05-22T12:35:42.274Z,8.43
2019-05-22T12:38:13.762Z,8.68
2019-05-22T12:40:43.661Z,11.08
2019-05-22T12:43:12.867Z,8.60
2019-05-22T12:45:42.113Z,8.38
2019-05-22T12:48:11.614Z,7.00
2019-05-22T12:50:40.755Z,9.75
2019-05-22T12:53:12.599Z,8.88
2019-05-22T12:55:42.207Z,9.25
2019-05-22T12:58:11.338Z,8.93
2019-05-22T13:00:40.730Z,7.12
2019-05-22T13:03:11.770Z,8.88
2019-05-22T13:05:41.236Z,8.93
2019-05-22T13:08:13.412Z,8.33
2019-05-22T13:10:43.056Z,12.93
2019-05-22T13:13:12.914Z,11.10
2019-05-22T13:15:43.279Z,9.88
2019-05-22T13:18:15.763Z,10.25
2019-05-22T13:20:47.303Z,12.23
2019-05-22T13:23:16.974Z,10.38
2019-05-22T13:25:46.306Z,11.08
2019-05-22T13:28:18.373Z,13.48
2019-05-22T13:30:51.145Z,14.58
2019-05-22T13:33:24.875Z,10.45
2019-05-22T13:35:54.794Z,9.15
2019-05-22T13:38:24.385Z,13.30
2019-05-22T13:40:54.697Z,11.38
2019-05-22T13:43:24.495Z,17.77
2019-05-22T13:45:54.392Z,9.55
2019-05-22T13:48:23.868Z,15.32
2019-05-22T13:50:53.399Z,10.45
2019-05-22T13:53:22.897Z,11.50
2019-05-22T13:55:54.510Z,10.13
2019-05-22T13:58:25.220Z,10.78
2019-05-22T14:00:54.351Z,13.90
2019-05-22T14:03:24.103Z,12.28
2019-05-22T14:05:54.638Z,10.48
2019-05-22T14:08:24.271Z,10.68
2019-05-22T14:10:54.134Z,10.10
2019-05-22T14:13:25.612Z,14.18
2019-05-22T14:15:56.862Z,12.88
2019-05-22T14:18:25.871Z,16.17
2019-05-22T14:20:55.270Z,12.70
2019-05-22T14:23:24.879Z,11.18
2019-05-22T14:25:54.398Z,12.03
2019-05-22T14:28:25.264Z,12.40
2019-05-22T14:30:54.573Z,14.00
2019-05-22T14:33:27.938Z,12.53
2019-05-22T14:35:57.178Z,16.42
2019-05-22T14:38:26.844Z,13.38
2019-05-22T14:40:57.193Z,17.80
2019-05-22T14:43:26.876Z,22.20
2019-05-22T14:45:56.293Z,23.75
2019-05-22T14:48:25.711Z,24.32
2019-05-22T14:50:54.844Z,19.52
2019-05-22T14:53:24.184Z,20.32
2019-05-22T14:55:53.887Z,22.37
2019-05-22T14:58:23.986Z,21.70
2019-05-22T15:00:53.892Z,18.35
2019-05-22T15:03:23.303Z,16.48
2019-05-22T15:05:52.616Z,20.30
2019-05-22T15:08:21.827Z,18.90
2019-05-22T15:10:51.371Z,16.42
2019-05-22T15:13:20.954Z,15.48
2019-05-22T15:15:50.255Z,18.98
2019-05-22T15:18:19.366Z,24.02
2019-05-22T15:21:06.132Z,18.60
2019-05-22T15:23:37.344Z,19.92
2019-05-22T15:26:06.780Z,23.10
2019-05-22T15:28:36.481Z,17.95
2019-05-22T15:31:06.267Z,16.23
2019-05-22T15:33:36.086Z,14.58
2019-05-22T15:36:08.085Z,18.23
2019-05-22T15:38:40.531Z,17.35
2019-05-22T15:41:11.453Z,15.05
2019-05-22T15:43:43.259Z,15.53
2019-05-22T15:46:14.803Z,15.78
2019-05-22T15:48:45.354Z,14.07
2019-05-22T15:51:16.638Z,15.58
2019-05-22T15:53:46.964Z,12.73
2019-05-22T15:56:16.396Z,14.38
2019-05-22T15:58:48.874Z,14.60
2019-05-22T16:01:21.775Z,15.35
2019-05-22T16:03:51.876Z,14.05
2019-05-22T16:06:23.516Z,17.92
2019-05-22T16:08:53.862Z,13.03
2019-05-22T16:11:26.086Z,12.88
2019-05-22T16:13:56.853Z,15.98
2019-05-22T16:16:26.950Z,13.90
2019-05-22T16:18:59.972Z,10.00
2019-05-22T16:21:29.809Z,10.70
2019-05-22T16:23:59.605Z,13.72
2019-05-22T16:26:29.902Z,12.30
2019-05-22T16:29:01.586Z,9.80
2019-05-22T16:31:33.032Z,14.15
2019-05-22T16:34:02.588Z,12.85
2019-05-22T16:36:33.235Z,13.18
2019-05-22T16:39:04.299Z,12.40
2019-05-22T16:41:33.994Z,13.18
2019-05-22T16:44:03.986Z,12.13
2019-05-22T16:46:33.992Z,12.65
2019-05-22T16:49:03.826Z,10.32
2019-05-22T16:51:33.146Z,12.53
2019-05-22T16:54:06.219Z,9.93
2019-05-22T16:56:35.896Z,12.95
2019-05-22T16:59:07.466Z,12.45
2019-05-22T17:01:56.860Z,10.63
2019-05-22T17:04:08.307Z,14.68
2019-05-22T17:06:38.721Z,13.70
2019-05-22T17:09:11.345Z,12.53
2019-05-22T17:11:41.497Z,10.95
2019-05-22T17:14:11.936Z,9.65
2019-05-22T17:16:41.301Z,9.68
2019-05-22T17:19:25.759Z,11.85
2019-05-22T17:21:43.007Z,10.75
2019-05-22T17:24:14.686Z,9.68
2019-05-22T17:26:44.699Z,11.25
2019-05-22T17:29:14.913Z,13.22
2019-05-22T17:31:44.767Z,9.58
2019-05-22T17:34:33.486Z,11.48
2019-05-22T17:37:06.963Z,12.18
2019-05-22T17:39:38.228Z,15.78
2019-05-22T17:42:10.634Z,11.33
2019-05-22T17:44:42.296Z,13.00
2019-05-22T17:47:12.486Z,9.13
2019-05-22T17:49:42.697Z,12.18
2019-05-22T17:52:12.716Z,12.98
2019-05-22T17:54:42.112Z,9.45
2019-05-22T17:57:11.612Z,11.70
2019-05-22T17:59:40.916Z,11.83
2019-05-22T18:02:11.796Z,12.50
2019-05-22T18:04:41.029Z,13.15
2019-05-22T18:07:10.205Z,10.10
2019-05-22T18:09:39.477Z,10.30
2019-05-22T18:12:08.755Z,12.85
2019-05-22T18:14:38.047Z,10.65
2019-05-22T18:17:07.948Z,12.47
2019-05-22T18:19:37.177Z,14.25
2019-05-22T18:22:08.155Z,11.33
2019-05-22T18:24:37.459Z,9.38
2019-05-22T18:27:06.638Z,9.83
2019-05-22T18:29:35.936Z,10.98
2019-05-22T18:32:06.732Z,10.53
2019-05-22T18:34:35.882Z,10.68
2019-05-22T18:37:05.185Z,11.40
2019-05-22T18:39:35.699Z,10.68
2019-05-22T18:42:05.847Z,15.80
2019-05-22T18:44:35.062Z,10.05
2019-05-22T18:47:04.879Z,11.33
2019-05-22T18:49:36.658Z,11.25
2019-05-22T18:52:06.083Z,11.95
2019-05-22T18:54:35.432Z,9.95
2019-05-22T18:57:04.852Z,11.12
2019-05-22T18:59:34.237Z,12.75
2019-05-22T19:02:04.545Z,13.90
2019-05-22T19:04:34.038Z,11.40
2019-05-22T19:07:04.033Z,10.90
2019-05-22T19:09:33.431Z,11.08
2019-05-22T19:12:03.085Z,15.45
2019-05-22T19:14:32.535Z,13.45
2019-05-22T19:17:01.909Z,12.63
2019-05-22T19:19:31.148Z,11.45
2019-05-22T19:22:00.687Z,11.18
2019-05-22T19:24:29.810Z,14.05
2019-05-22T19:26:58.977Z,14.13
2019-05-22T19:29:28.217Z,13.25
2019-05-22T19:31:57.352Z,15.58
2019-05-22T19:34:26.427Z,17.05
2019-05-22T19:36:55.719Z,13.35
2019-05-22T19:39:25.317Z,12.88
2019-05-22T19:42:03.401Z,13.18
2019-05-22T19:44:25.152Z,14.18
2019-05-22T19:46:54.391Z,15.75
2019-05-22T19:49:23.977Z,16.82
2019-05-22T19:51:55.189Z,16.48
2019-05-22T19:54:24.349Z,14.00
2019-05-22T19:56:53.563Z,15.75
2019-05-22T19:59:23.623Z,17.57
2019-05-22T20:01:53.181Z,13.53
2019-05-22T20:04:22.788Z,13.35
2019-05-22T20:06:52.183Z,14.23
2019-05-22T20:09:21.808Z,15.48
2019-05-22T20:11:51.088Z,16.12
2019-05-22T20:14:20.282Z,14.98
2019-05-22T20:16:49.512Z,15.53
2019-05-22T20:19:18.910Z,14.78
2019-05-22T20:21:48.337Z,14.58
2019-05-22T20:24:17.501Z,15.32
2019-05-22T20:26:46.583Z,18.35
2019-05-22T20:29:16.294Z,16.23
2019-05-22T20:31:45.511Z,18.77
2019-05-22T20:34:15.323Z,13.25
2019-05-22T20:36:44.975Z,14.35
2019-05-22T20:39:15.951Z,14.55
2019-05-22T20:41:45.195Z,12.75
2019-05-22T20:44:15.667Z,19.77
2019-05-22T20:46:46.217Z,15.48
2019-05-22T20:49:15.745Z,15.13
2019-05-22T20:51:46.015Z,13.98
2019-05-22T20:54:16.996Z,14.00
2019-05-22T20:56:47.998Z,13.90
2019-05-22T20:59:17.237Z,14.28
2019-05-22T21:01:46.974Z,15.72
2019-05-22T21:04:19.746Z,17.40
2019-05-22T21:06:54.719Z,15.68
2019-05-22T21:09:24.750Z,17.05
2019-05-22T21:11:54.417Z,17.55
2019-05-22T21:14:23.964Z,19.75
2019-05-22T21:16:53.203Z,20.97
2019-05-22T21:19:24.004Z,21.02
2019-05-22T21:21:54.024Z,20.23
2019-05-22T21:24:23.407Z,19.05
2019-05-22T21:26:53.021Z,22.90
2019-05-22T21:29:22.963Z,24.05
2019-05-22T21:31:52.502Z,21.50
2019-05-22T21:34:22.137Z,22.85
2019-05-22T21:36:51.537Z,24.10
2019-05-22T21:39:22.145Z,24.95
2019-05-22T21:41:51.300Z,25.15
2019-05-22T21:44:20.431Z,30.97
2019-05-22T21:46:50.649Z,26.23
2019-05-22T21:49:20.054Z,26.50
2019-05-22T21:51:49.352Z,26.25
2019-05-22T21:54:19.597Z,28.25
2019-05-22T21:56:49.835Z,30.17
2019-05-22T21:59:19.444Z,25.65
2019-05-22T22:01:50.243Z,26.42
2019-05-22T22:04:21.140Z,26.75
2019-05-22T22:06:52.736Z,26.23
2019-05-22T22:09:22.415Z,27.25
2019-05-22T22:11:52.837Z,26.82
2019-05-22T22:14:24.066Z,25.27
2019-05-22T22:16:53.617Z,30.08
2019-05-22T22:19:26.126Z,26.12
2019-05-22T22:21:56.142Z,26.37
2019-05-22T22:24:26.353Z,26.60
2019-05-22T22:26:56.866Z,26.75
2019-05-22T22:29:26.367Z,28.38
2019-05-22T22:31:57.479Z,29.52
2019-05-22T22:34:29.901Z,27.27
2019-05-22T22:36:59.457Z,32.00
2019-05-22T22:39:30.597Z,30.52
2019-05-22T22:42:00.626Z,28.15
2019-05-22T22:44:30.880Z,27.07
2019-05-22T22:47:03.419Z,28.42
2019-05-22T22:49:32.851Z,26.97
2019-05-22T22:52:02.380Z,28.32
2019-05-22T22:54:31.645Z,23.95
2019-05-22T22:57:00.881Z,25.17
2019-05-22T22:59:30.422Z,27.58
2019-05-22T23:02:01.232Z,24.32
2019-05-22T23:04:30.834Z,24.25
2019-05-22T23:07:03.143Z,26.30
2019-05-22T23:09:33.417Z,20.17
2019-05-22T23:12:04.340Z,19.52
2019-05-22T23:14:33.823Z,18.77
2019-05-22T23:17:03.763Z,20.68
2019-05-22T23:19:32.122Z,18.85
2019-05-22T23:22:01.463Z,18.52
2019-05-22T23:24:31.028Z,21.62
2019-05-22T23:27:00.986Z,18.77
2019-05-22T23:29:30.827Z,18.95
2019-05-22T23:32:00.741Z,19.92
2019-05-22T23:34:30.719Z,19.10
2019-05-22T23:37:00.735Z,23.27
2019-05-22T23:39:32.212Z,23.90
2019-05-22T23:42:07.174Z,18.30
2019-05-22T23:44:38.319Z,18.92
2019-05-22T23:47:08.063Z,20.05
2019-05-22T23:49:39.708Z,18.73
2019-05-22T23:52:10.304Z,16.85
2019-05-22T23:54:40.090Z,21.07
2019-05-22T23:57:10.861Z,19.42
2019-05-22T23:59:42.463Z,17.73
